createdAt,value
2018-04-14T12:53:53.844Z,19.40
2018-04-14T12:54:53.734Z,21.20
2018-04-14T12:56:46.583Z,20.90
2018-04-14T12:57:46.507Z,21.10
2018-04-14T12:59:39.335Z,21.20
2018-04-14T13:00:39.167Z,19.90
2018-04-14T13:02:32.424Z,22.40
2018-04-14T13:03:32.335Z,23.50
2018-04-14T13:05:25.161Z,23.00
2018-04-14T13:06:25.623Z,23.00
2018-04-14T13:08:17.909Z,22.90
2018-04-14T13:09:17.793Z,23.00
2018-04-14T13:11:10.665Z,23.70
2018-04-14T13:12:10.535Z,23.60
2018-04-14T13:14:03.418Z,22.60
2018-04-14T13:15:03.289Z,22.30
2018-04-14T13:16:56.167Z,22.10
2018-04-14T13:17:56.064Z,22.60
2018-04-14T13:19:48.929Z,23.60
2018-04-14T13:20:48.840Z,23.10
2018-04-14T13:22:41.653Z,22.80
2018-04-14T13:23:41.631Z,23.90
2018-04-14T13:25:34.409Z,23.90
2018-04-14T13:26:34.281Z,25.30
2018-04-14T13:28:27.129Z,24.30
2018-04-14T13:29:27.044Z,23.80
2018-04-14T13:31:19.926Z,24.50
2018-04-14T13:32:19.823Z,24.30
2018-04-14T13:34:12.681Z,23.90
2018-04-14T13:35:12.531Z,24.30
2018-04-14T13:37:05.833Z,22.70
2018-04-14T13:38:05.720Z,23.70
2018-04-14T13:39:58.678Z,23.90
2018-04-14T13:40:58.566Z,24.10
2018-04-14T13:42:51.491Z,23.60
2018-04-14T13:43:51.402Z,23.80
2018-04-14T13:45:44.296Z,23.40
2018-04-14T13:46:44.167Z,23.90
2018-04-14T13:48:36.996Z,23.30
2018-04-14T13:49:36.896Z,22.20
2018-04-14T13:51:29.749Z,23.30
2018-04-14T13:52:29.644Z,23.90
2018-04-14T13:54:22.610Z,23.30
2018-04-14T13:55:22.543Z,24.80
2018-04-14T13:57:15.472Z,23.10
2018-04-14T13:58:15.383Z,23.80
2018-04-14T14:00:08.226Z,23.70
2018-04-14T14:01:08.105Z,23.40
2018-04-14T14:03:00.992Z,23.70
2018-04-14T14:04:00.861Z,23.10
2018-04-14T14:05:54.394Z,22.50
2018-04-14T14:06:53.614Z,21.50
2018-04-14T14:08:46.631Z,22.50
2018-04-14T14:09:46.951Z,22.80
2018-04-14T14:11:39.224Z,22.30
2018-04-14T14:12:39.100Z,23.50
2018-04-14T14:14:31.974Z,23.10
2018-04-14T14:15:31.895Z,23.40
2018-04-14T14:17:24.693Z,22.20
2018-04-14T14:18:24.619Z,24.50
2018-04-14T14:20:18.526Z,23.00
2018-04-14T14:21:17.517Z,23.10
2018-04-14T14:23:10.601Z,22.90
2018-04-14T14:24:10.538Z,23.20
2018-04-14T14:26:03.382Z,24.50
2018-04-14T14:27:03.268Z,23.00
2018-04-14T14:28:56.133Z,24.10
2018-04-14T14:29:56.012Z,23.20
2018-04-14T14:31:50.038Z,23.40
2018-04-14T14:32:49.444Z,22.60
2018-04-14T14:34:41.617Z,23.00
2018-04-14T14:35:41.528Z,23.70
2018-04-14T14:37:34.365Z,23.80
2018-04-14T14:38:34.262Z,23.70
2018-04-14T14:40:27.366Z,23.80
2018-04-14T14:41:27.243Z,23.90
2018-04-14T14:43:20.871Z,23.40
2018-04-14T14:44:21.331Z,23.70
2018-04-14T14:46:12.947Z,24.80
2018-04-14T14:47:12.833Z,24.50
2018-04-14T14:49:05.667Z,24.30
2018-04-14T14:50:05.571Z,23.60
2018-04-14T14:51:58.619Z,23.80
2018-04-14T14:52:58.521Z,23.90
2018-04-14T14:54:51.515Z,23.30
2018-04-14T14:55:51.426Z,23.60
2018-04-14T14:57:44.130Z,24.60
2018-04-14T14:58:44.014Z,24.50
2018-04-14T15:00:36.851Z,25.30
2018-04-14T15:01:36.803Z,25.70
2018-04-14T15:03:31.167Z,25.10
2018-04-14T15:04:31.130Z,26.10
2018-04-14T15:06:25.305Z,24.70
2018-04-14T15:07:24.343Z,24.50
2018-04-14T15:09:16.674Z,25.60
2018-04-14T15:10:16.579Z,24.40
2018-04-14T15:12:09.430Z,25.10
2018-04-14T15:13:09.308Z,24.80
2018-04-14T15:15:02.999Z,26.30
2018-04-14T15:16:02.885Z,25.30
2018-04-14T15:17:56.319Z,25.00
2018-04-14T15:18:56.258Z,26.30
2018-04-14T15:20:49.769Z,26.00
2018-04-14T15:21:49.673Z,25.70
2018-04-14T15:23:42.372Z,25.60
2018-04-14T15:24:42.237Z,25.90
2018-04-14T15:26:35.105Z,26.10
2018-04-14T15:27:34.995Z,26.40
2018-04-14T15:29:28.278Z,26.60
2018-04-14T15:30:28.159Z,26.10
2018-04-14T15:32:21.515Z,26.50
2018-04-14T15:33:21.485Z,26.50
2018-04-14T15:35:14.283Z,26.40
2018-04-14T15:36:14.168Z,25.80
2018-04-14T15:38:07.037Z,26.90
2018-04-14T15:39:06.911Z,26.70
2018-04-14T15:40:59.781Z,26.00
2018-04-14T15:41:59.659Z,26.00
2018-04-14T15:43:52.944Z,25.90
2018-04-14T15:44:52.514Z,26.30
2018-04-14T15:46:45.409Z,25.50
2018-04-14T15:47:45.264Z,24.80
2018-04-14T15:49:38.129Z,26.50
2018-04-14T15:50:38.007Z,26.70
2018-04-14T15:52:30.892Z,26.20
2018-04-14T15:53:30.763Z,25.30
2018-04-14T15:55:23.602Z,23.90
2018-04-14T15:56:23.522Z,25.60
2018-04-14T15:58:16.353Z,24.30
2018-04-14T15:59:16.278Z,24.70
2018-04-14T16:01:09.113Z,25.10
2018-04-14T16:02:09.012Z,24.70
2018-04-14T16:04:09.657Z,25.80
2018-04-14T16:05:01.758Z,25.30
2018-04-14T16:06:54.640Z,26.80
2018-04-14T16:07:54.514Z,26.80
2018-04-14T16:09:47.359Z,27.70
2018-04-14T16:10:47.277Z,28.20
2018-04-14T16:12:40.517Z,28.40
2018-04-14T16:13:40.443Z,28.00
2018-04-14T16:15:33.271Z,27.70
2018-04-14T16:16:33.181Z,27.20
2018-04-14T16:18:26.007Z,27.70
2018-04-14T16:19:25.927Z,27.70
2018-04-14T16:21:18.786Z,26.80
2018-04-14T16:22:18.669Z,27.10
2018-04-14T16:24:11.510Z,26.00
2018-04-14T16:25:11.425Z,26.20
2018-04-14T16:27:04.268Z,26.60
2018-04-14T16:28:04.190Z,27.40
2018-04-14T16:29:57.010Z,27.50
2018-04-14T16:30:56.941Z,27.20
2018-04-14T16:32:49.770Z,29.10
2018-04-14T16:33:49.672Z,27.80
2018-04-14T16:35:42.507Z,28.30
2018-04-14T16:36:42.411Z,27.30
2018-04-14T16:38:35.284Z,27.80
2018-04-14T16:39:35.170Z,27.10
2018-04-14T16:41:28.008Z,29.90
2018-04-14T16:42:27.937Z,28.00
2018-04-14T16:44:21.972Z,28.90
2018-04-14T16:45:20.657Z,29.00
2018-04-14T16:47:13.524Z,29.60
2018-04-14T16:48:13.416Z,29.30
2018-04-14T16:50:06.748Z,30.00
2018-04-14T16:51:06.583Z,30.20
2018-04-14T16:52:59.466Z,29.90
2018-04-14T16:53:59.329Z,29.90
2018-04-14T16:55:52.698Z,31.00
2018-04-14T16:56:52.302Z,30.10
2018-04-14T16:58:44.929Z,29.40
2018-04-14T16:59:44.828Z,29.60
2018-04-14T17:01:37.662Z,30.20
2018-04-14T17:02:37.593Z,31.10
2018-04-14T17:04:30.439Z,30.30
2018-04-14T17:05:30.317Z,30.80
2018-04-14T17:07:23.177Z,30.70
2018-04-14T17:08:23.081Z,30.60
2018-04-14T17:10:15.949Z,30.80
2018-04-14T17:11:15.822Z,31.50
2018-04-14T17:13:08.664Z,33.10
2018-04-14T17:14:08.563Z,31.60
2018-04-14T17:16:02.332Z,32.30
2018-04-14T17:17:01.320Z,32.00
2018-04-14T17:18:54.240Z,31.20
2018-04-14T17:19:54.106Z,31.40
2018-04-14T17:21:46.924Z,31.70
2018-04-14T17:22:46.810Z,31.40
2018-04-14T17:24:39.685Z,32.00
2018-04-14T17:25:39.561Z,32.50
2018-04-14T17:27:32.410Z,31.80
2018-04-14T17:28:32.338Z,32.30
2018-04-14T17:30:25.154Z,31.80
2018-04-14T17:31:25.061Z,32.00
2018-04-14T17:33:17.952Z,32.40
2018-04-14T17:34:17.821Z,32.40
2018-04-14T17:36:10.687Z,34.20
2018-04-14T17:37:10.555Z,34.70
2018-04-14T17:39:03.411Z,35.30
2018-04-14T17:40:03.311Z,34.00
2018-04-14T17:41:56.159Z,35.30
2018-04-14T17:42:56.287Z,35.40
2018-04-14T17:44:48.970Z,36.00
2018-04-14T17:45:48.819Z,36.50
2018-04-14T17:47:41.676Z,35.80
2018-04-14T17:48:41.616Z,35.50
2018-04-14T17:50:34.427Z,35.40
2018-04-14T17:51:34.304Z,35.50
2018-04-14T17:53:27.158Z,35.90
2018-04-14T17:54:27.062Z,35.50
2018-04-14T17:56:19.965Z,34.10
2018-04-14T17:57:19.824Z,33.90
2018-04-14T17:59:12.688Z,36.10
2018-04-14T18:00:12.570Z,37.90
2018-04-14T18:02:05.322Z,36.60
2018-04-14T18:03:05.210Z,37.20
2018-04-14T18:04:58.468Z,37.40
2018-04-14T18:05:58.363Z,38.40
2018-04-14T18:07:51.234Z,39.20
2018-04-14T18:08:51.111Z,39.90
2018-04-14T18:10:43.957Z,39.60
2018-04-14T18:11:43.867Z,42.10
2018-04-14T18:13:36.716Z,40.90
2018-04-14T18:14:36.629Z,38.50
2018-04-14T18:16:29.975Z,39.00
2018-04-14T18:17:29.775Z,40.10
2018-04-14T18:19:24.075Z,42.40
2018-04-14T18:20:23.981Z,40.70
2018-04-14T18:22:17.725Z,41.50
2018-04-14T18:23:17.641Z,39.40
2018-04-14T18:25:10.482Z,39.90
2018-04-14T18:26:10.416Z,39.00
2018-04-14T18:28:03.266Z,38.20
2018-04-14T18:29:03.126Z,39.10
2018-04-14T18:30:56.001Z,40.60
2018-04-14T18:31:55.898Z,41.30
2018-04-14T18:33:48.717Z,42.40
2018-04-14T18:34:48.619Z,44.20
2018-04-14T18:36:41.931Z,41.40
2018-04-14T18:37:41.786Z,39.50
2018-04-14T18:39:34.683Z,40.80
2018-04-14T18:40:34.532Z,39.70
2018-04-14T18:42:27.288Z,39.70
2018-04-14T18:43:27.183Z,41.60
2018-04-14T18:45:20.017Z,42.30
2018-04-14T18:46:19.972Z,41.60
2018-04-14T18:48:12.689Z,38.30
2018-04-14T18:49:12.579Z,39.10
2018-04-14T18:51:05.316Z,39.40
2018-04-14T18:52:05.240Z,38.10
2018-04-14T18:53:58.731Z,37.10
2018-04-14T18:54:58.588Z,36.60
2018-04-14T18:56:51.445Z,38.80
2018-04-14T18:57:51.343Z,37.80
2018-04-14T18:59:44.092Z,40.30
2018-04-14T19:00:43.988Z,39.30
2018-04-14T19:02:36.840Z,42.10
2018-04-14T19:03:36.636Z,38.50
2018-04-14T19:05:29.489Z,39.80
2018-04-14T19:06:29.392Z,42.50
2018-04-14T19:08:22.119Z,39.00
2018-04-14T19:09:22.029Z,40.40
2018-04-14T19:11:14.788Z,38.60
2018-04-14T19:12:14.674Z,39.20
2018-04-14T19:14:07.413Z,38.10
2018-04-14T19:15:07.337Z,39.20
2018-04-14T19:17:00.170Z,38.50
2018-04-14T19:18:00.077Z,39.60
2018-04-14T19:19:52.841Z,41.50
2018-04-14T19:20:52.728Z,40.30
2018-04-14T19:22:45.598Z,40.90
2018-04-14T19:23:45.490Z,38.40
2018-04-14T19:25:38.241Z,37.80
2018-04-14T19:26:38.119Z,39.20
2018-04-14T19:28:30.894Z,42.00
2018-04-14T19:29:30.760Z,39.50
2018-04-14T19:31:24.031Z,40.90
2018-04-14T19:32:23.940Z,41.10
2018-04-14T19:34:17.214Z,39.90
2018-04-14T19:35:17.079Z,40.80
2018-04-14T19:37:09.924Z,39.00
2018-04-14T19:38:09.839Z,38.50
2018-04-14T19:40:02.696Z,38.30
2018-04-14T19:41:02.585Z,40.10
2018-04-14T19:42:56.337Z,40.90
2018-04-14T19:43:55.338Z,37.60
2018-04-14T19:45:48.216Z,36.70
2018-04-14T19:46:48.076Z,37.60
2018-04-14T19:48:42.562Z,36.00
2018-04-14T19:49:42.479Z,36.50
2018-04-14T19:51:35.263Z,36.20
2018-04-14T19:52:35.145Z,40.60
2018-04-14T19:54:27.878Z,38.60
2018-04-14T19:55:27.764Z,39.20
2018-04-14T19:57:20.649Z,37.50
2018-04-14T19:58:20.430Z,40.60
2018-04-14T20:00:13.260Z,35.80
2018-04-14T20:01:13.157Z,38.30
2018-04-14T20:03:05.928Z,39.10
2018-04-14T20:04:05.824Z,37.00
2018-04-14T20:05:58.652Z,38.60
2018-04-14T20:06:58.612Z,39.90
2018-04-14T20:08:51.320Z,37.30
2018-04-14T20:09:51.200Z,38.60
2018-04-14T20:11:43.955Z,42.00
2018-04-14T20:12:43.872Z,38.50
2018-04-14T20:14:36.719Z,38.90
2018-04-14T20:15:38.306Z,38.90
2018-04-14T20:17:29.484Z,38.20
2018-04-14T20:18:29.262Z,38.70
2018-04-14T20:20:22.095Z,39.70
2018-04-14T20:21:21.988Z,40.40
2018-04-14T20:23:14.742Z,38.70
2018-04-14T20:24:14.650Z,41.70
2018-04-14T20:26:07.386Z,40.10
2018-04-14T20:27:07.292Z,41.20
2018-04-14T20:29:01.305Z,39.00
2018-04-14T20:30:01.465Z,39.80
2018-04-14T20:31:52.826Z,40.00
2018-04-14T20:32:52.697Z,38.70
2018-04-14T20:34:45.567Z,40.50
2018-04-14T20:35:45.442Z,40.30
2018-04-14T20:37:38.202Z,41.40
2018-04-14T20:38:38.092Z,39.90
2018-04-14T20:40:30.937Z,41.50
2018-04-14T20:41:30.862Z,41.30
2018-04-14T20:43:23.715Z,41.10
2018-04-14T20:44:23.493Z,40.90
2018-04-14T20:46:16.331Z,40.00
2018-04-14T20:47:16.133Z,40.20
2018-04-14T20:49:08.990Z,40.30
2018-04-14T20:50:08.898Z,40.80
2018-04-14T20:52:01.734Z,41.50
2018-04-14T20:53:01.645Z,42.10
2018-04-14T20:54:54.498Z,40.30
2018-04-14T20:55:54.372Z,45.00
2018-04-14T20:57:47.125Z,43.40
2018-04-14T20:58:47.026Z,46.30
2018-04-14T21:00:40.300Z,44.30
2018-04-14T21:01:40.190Z,45.20
2018-04-14T21:03:33.028Z,46.60
2018-04-14T21:04:32.931Z,47.50
2018-04-14T21:06:25.698Z,43.70
2018-04-14T21:07:25.584Z,45.70
2018-04-14T21:09:18.349Z,43.20
2018-04-14T21:10:18.226Z,43.80
2018-04-14T21:12:11.583Z,41.20
2018-04-14T21:13:10.867Z,45.90
2018-04-14T21:15:04.149Z,45.50
2018-04-14T21:16:04.052Z,46.40
2018-04-14T21:17:57.297Z,43.70
2018-04-14T21:18:57.263Z,44.70
2018-04-14T21:20:50.040Z,45.40
2018-04-14T21:21:49.936Z,46.20
2018-04-14T21:23:42.820Z,46.70
2018-04-14T21:24:42.708Z,47.70
2018-04-14T21:26:35.612Z,46.20
2018-04-14T21:27:35.343Z,46.40
2018-04-14T21:29:28.078Z,45.00
2018-04-14T21:30:28.002Z,47.50
2018-04-14T21:32:20.809Z,43.10
2018-04-14T21:33:20.628Z,44.90
2018-04-14T21:35:13.390Z,46.80
2018-04-14T21:36:13.301Z,46.30
2018-04-14T21:38:06.054Z,48.50
2018-04-14T21:39:05.927Z,45.20
2018-04-14T21:40:58.689Z,49.50
2018-04-14T21:41:58.588Z,49.00
2018-04-14T21:43:51.441Z,45.30
2018-04-14T21:44:51.322Z,49.10
2018-04-14T21:46:44.065Z,49.70
2018-04-14T21:47:43.970Z,49.10
2018-04-14T21:49:36.730Z,50.20
2018-04-14T21:50:36.623Z,48.60
2018-04-14T21:52:29.460Z,44.20
2018-04-14T21:53:29.366Z,46.00
2018-04-14T21:55:22.155Z,46.40
2018-04-14T21:56:22.017Z,46.60
2018-04-14T21:58:14.785Z,43.00
2018-04-14T21:59:14.653Z,43.60
2018-04-14T22:01:07.416Z,46.30
2018-04-14T22:02:07.359Z,44.00
2018-04-14T22:04:00.070Z,43.10
2018-04-14T22:04:59.950Z,45.10
2018-04-14T22:06:52.944Z,44.10
2018-04-14T22:07:52.856Z,44.30
2018-04-14T22:09:45.648Z,46.10
2018-04-14T22:10:45.554Z,42.40
2018-04-14T22:12:38.458Z,43.10
2018-04-14T22:13:38.301Z,45.80
2018-04-14T22:15:31.659Z,44.10
2018-04-14T22:16:30.951Z,44.30
2018-04-14T22:18:23.737Z,45.40
2018-04-14T22:19:23.601Z,46.40
2018-04-14T22:21:16.455Z,50.80
2018-04-14T22:22:16.245Z,48.80
2018-04-14T22:24:09.025Z,48.20
2018-04-14T22:25:08.900Z,45.30
2018-04-14T22:27:03.165Z,46.30
2018-04-14T22:28:03.078Z,49.50
2018-04-14T22:29:55.834Z,43.60
2018-04-14T22:30:55.772Z,44.70
2018-04-14T22:32:48.477Z,45.70
2018-04-14T22:33:48.375Z,44.00
2018-04-14T22:35:41.121Z,49.00
2018-04-14T22:36:41.017Z,48.00
2018-04-14T22:38:33.862Z,48.80
2018-04-14T22:39:33.766Z,46.10
2018-04-14T22:41:26.533Z,47.50
2018-04-14T22:42:26.431Z,48.10
2018-04-14T22:44:21.847Z,48.50
2018-04-14T22:45:20.595Z,51.90
2018-04-14T22:47:13.353Z,57.10
2018-04-14T22:48:13.267Z,53.30
2018-04-14T22:50:06.017Z,50.40
2018-04-14T22:51:05.901Z,49.90
2018-04-14T22:52:58.765Z,48.30
2018-04-14T22:53:58.645Z,47.50
2018-04-14T22:55:51.392Z,51.20
2018-04-14T22:56:51.295Z,48.60
2018-04-14T22:58:44.044Z,52.00
2018-04-14T22:59:43.932Z,53.60
2018-04-14T23:01:36.703Z,54.50
2018-04-14T23:02:36.582Z,50.70
2018-04-14T23:04:29.422Z,51.80
2018-04-14T23:05:29.335Z,49.00
2018-04-14T23:07:22.113Z,52.60
2018-04-14T23:08:21.994Z,50.00
2018-04-14T23:10:19.762Z,48.20
2018-04-14T23:11:19.641Z,47.50
2018-04-14T23:13:12.504Z,44.30
2018-04-14T23:14:12.389Z,49.30
2018-04-14T23:16:05.136Z,46.30
2018-04-14T23:17:05.048Z,46.80
2018-04-14T23:18:57.892Z,57.00
2018-04-14T23:19:57.789Z,63.00
2018-04-14T23:21:50.541Z,56.00
2018-04-14T23:22:50.431Z,50.40
2018-04-14T23:24:43.317Z,48.70
2018-04-14T23:25:43.177Z,50.50
2018-04-14T23:27:35.935Z,50.60
2018-04-14T23:28:35.869Z,46.40
2018-04-14T23:30:28.714Z,52.10
2018-04-14T23:31:28.583Z,48.40
2018-04-14T23:33:21.437Z,52.70
2018-04-14T23:34:21.339Z,48.70
2018-04-14T23:36:14.598Z,52.50
2018-04-14T23:37:14.487Z,54.90
2018-04-14T23:39:07.263Z,53.60
2018-04-14T23:40:07.134Z,51.80
2018-04-14T23:41:59.923Z,50.50
2018-04-14T23:42:59.794Z,58.60
2018-04-14T23:44:53.053Z,61.20
2018-04-14T23:45:52.944Z,54.60
2018-04-14T23:47:45.714Z,57.60
2018-04-14T23:48:45.603Z,61.70
2018-04-14T23:50:38.345Z,55.20
2018-04-14T23:51:38.255Z,56.00
2018-04-14T23:53:31.092Z,54.30
2018-04-14T23:54:30.984Z,47.90
2018-04-14T23:56:23.841Z,46.40
2018-04-14T23:57:23.736Z,48.20
2018-04-14T23:59:16.595Z,48.20
